Rancharia, Brazil
Current Conditions -  °F | °C
As of 7:00 AM on Monday 24 Nov 2014 (Local Time) from SBBQ Reporting Station
Drizzle Drizzle  
Wind Chill: 64°   Ceiling: 200
Heat Index: 64°   Visibility: 0.75mi
Dew Point: 63°   Wind: 3mph
Humidity: 94%   Direction: 90°E
Pressure: 30.15"   Gusts: NA
Location:  21.75°S, 43.95°W
Report Text: SBBQ 240900Z 09003KT 1200 -DZ OVC002 18/17 Q1021
Loading
Personal Weather Stations






























Interactive Weather Map New forecast layout! Learn more

10-Day Weather Forecast

Advertisements
Track Severe Weather on mobile